sensor_id;sensor_type;location;lat;lon;timestamp;P1;durP1;ratioP1;P2;durP2;ratioP2
75820;SDS011;64454;51.984;9.838;2022-12-11T00:00:04;24.13;;;13.90;;
75820;SDS011;64454;51.984;9.838;2022-12-11T00:02:33;24.10;;;14.25;;
75820;SDS011;64454;51.984;9.838;2022-12-11T00:05:00;22.57;;;13.30;;
75820;SDS011;64454;51.984;9.838;2022-12-11T00:07:28;21.98;;;12.57;;
75820;SDS011;64454;51.984;9.838;2022-12-11T00:09:55;26.80;;;14.55;;
75820;SDS011;64454;51.984;9.838;2022-12-11T00:12:22;24.90;;;14.50;;
75820;SDS011;64454;51.984;9.838;2022-12-11T00:14:49;30.27;;;16.73;;
75820;SDS011;64454;51.984;9.838;2022-12-11T00:17:16;29.00;;;16.10;;
75820;SDS011;64454;51.984;9.838;2022-12-11T00:19:43;23.92;;;14.60;;
75820;SDS011;64454;51.984;9.838;2022-12-11T00:22:10;31.13;;;16.67;;
75820;SDS011;64454;51.984;9.838;2022-12-11T00:24:38;27.23;;;15.77;;
75820;SDS011;64454;51.984;9.838;2022-12-11T00:27:05;29.00;;;16.60;;
75820;SDS011;64454;51.984;9.838;2022-12-11T00:29:32;29.60;;;17.10;;
75820;SDS011;64454;51.984;9.838;2022-12-11T00:31:59;31.05;;;16.15;;
75820;SDS011;64454;51.984;9.838;2022-12-11T00:34:26;29.77;;;17.50;;
75820;SDS011;64454;51.984;9.838;2022-12-11T00:36:53;31.42;;;17.20;;
75820;SDS011;64454;51.984;9.838;2022-12-11T00:39:20;35.80;;;17.92;;
75820;SDS011;64454;51.984;9.838;2022-12-11T00:41:48;33.67;;;19.27;;
75820;SDS011;64454;51.984;9.838;2022-12-11T00:44:15;31.05;;;17.42;;
75820;SDS011;64454;51.984;9.838;2022-12-11T00:46:42;31.97;;;17.07;;
75820;SDS011;64454;51.984;9.838;2022-12-11T00:49:09;31.73;;;17.48;;
75820;SDS011;64454;51.984;9.838;2022-12-11T00:51:36;33.17;;;18.48;;
75820;SDS011;64454;51.984;9.838;2022-12-11T00:54:03;31.40;;;17.90;;
75820;SDS011;64454;51.984;9.838;2022-12-11T00:56:31;32.35;;;18.25;;
75820;SDS011;64454;51.984;9.838;2022-12-11T00:58:59;29.02;;;16.98;;
75820;SDS011;64454;51.984;9.838;2022-12-11T01:01:26;31.57;;;17.30;;
75820;SDS011;64454;51.984;9.838;2022-12-11T01:03:53;31.10;;;16.77;;
75820;SDS011;64454;51.984;9.838;2022-12-11T01:06:22;26.85;;;15.80;;
75820;SDS011;64454;51.984;9.838;2022-12-11T01:08:51;31.35;;;17.40;;
75820;SDS011;64454;51.984;9.838;2022-12-11T01:11:40;29.10;;;15.75;;
75820;SDS011;64454;51.984;9.838;2022-12-11T01:14:08;28.05;;;17.55;;
75820;SDS011;64454;51.984;9.838;2022-12-11T01:16:36;31.05;;;16.35;;
75820;SDS011;64454;51.984;9.838;2022-12-11T01:19:04;27.57;;;16.53;;
75820;SDS011;64454;51.984;9.838;2022-12-11T01:21:31;31.85;;;16.85;;
75820;SDS011;64454;51.984;9.838;2022-12-11T01:23:58;32.88;;;18.00;;
75820;SDS011;64454;51.984;9.838;2022-12-11T01:26:25;28.88;;;15.45;;
75820;SDS011;64454;51.984;9.838;2022-12-11T01:28:52;31.65;;;17.15;;
75820;SDS011;64454;51.984;9.838;2022-12-11T01:31:20;32.00;;;17.20;;
75820;SDS011;64454;51.984;9.838;2022-12-11T01:33:47;30.70;;;16.55;;
75820;SDS011;64454;51.984;9.838;2022-12-11T01:36:14;32.50;;;17.33;;
75820;SDS011;64454;51.984;9.838;2022-12-11T01:38:45;29.58;;;17.67;;
75820;SDS011;64454;51.984;9.838;2022-12-11T01:41:14;30.13;;;16.02;;
75820;SDS011;64454;51.984;9.838;2022-12-11T01:46:32;26.73;;;15.07;;
75820;SDS011;64454;51.984;9.838;2022-12-11T01:49:02;26.02;;;15.02;;
75820;SDS011;64454;51.984;9.838;2022-12-11T01:51:36;28.27;;;15.70;;
75820;SDS011;64454;51.984;9.838;2022-12-11T01:54:10;25.42;;;13.63;;
75820;SDS011;64454;51.984;9.838;2022-12-11T01:56:43;22.10;;;13.73;;
75820;SDS011;64454;51.984;9.838;2022-12-11T01:59:12;22.88;;;12.95;;
75820;SDS011;64454;51.984;9.838;2022-12-11T02:01:47;25.20;;;14.13;;
75820;SDS011;64454;51.984;9.838;2022-12-11T02:04:20;21.75;;;12.60;;
75820;SDS011;64454;51.984;9.838;2022-12-11T02:06:49;22.95;;;13.43;;
75820;SDS011;64454;51.984;9.838;2022-12-11T02:09:19;22.30;;;12.40;;
75820;SDS011;64454;51.984;9.838;2022-12-11T02:11:52;19.10;;;11.80;;
75820;SDS011;64454;51.984;9.838;2022-12-11T02:14:28;21.48;;;12.35;;
75820;SDS011;64454;51.984;9.838;2022-12-11T02:17:07;19.13;;;12.25;;
75820;SDS011;64454;51.984;9.838;2022-12-11T02:19:44;19.95;;;12.18;;
75820;SDS011;64454;51.984;9.838;2022-12-11T02:22:27;20.77;;;12.75;;
75820;SDS011;64454;51.984;9.838;2022-12-11T02:25:15;27.20;;;14.20;;
75820;SDS011;64454;51.984;9.838;2022-12-11T02:27:51;26.48;;;14.48;;
75820;SDS011;64454;51.984;9.838;2022-12-11T02:30:33;22.55;;;14.00;;
75820;SDS011;64454;51.984;9.838;2022-12-11T02:33:05;25.70;;;13.55;;
75820;SDS011;64454;51.984;9.838;2022-12-11T02:35:38;26.67;;;14.27;;
75820;SDS011;64454;51.984;9.838;2022-12-11T02:38:09;24.02;;;13.27;;
75820;SDS011;64454;51.984;9.838;2022-12-11T02:40:44;24.02;;;13.45;;
75820;SDS011;64454;51.984;9.838;2022-12-11T02:43:16;21.45;;;13.73;;
75820;SDS011;64454;51.984;9.838;2022-12-11T02:45:46;25.60;;;14.30;;
75820;SDS011;64454;51.984;9.838;2022-12-11T02:48:16;23.70;;;13.90;;
75820;SDS011;64454;51.984;9.838;2022-12-11T02:50:46;22.95;;;13.80;;
75820;SDS011;64454;51.984;9.838;2022-12-11T02:53:17;24.05;;;13.90;;
75820;SDS011;64454;51.984;9.838;2022-12-11T02:55:51;21.80;;;13.10;;
75820;SDS011;64454;51.984;9.838;2022-12-11T02:58:30;23.42;;;13.60;;
75820;SDS011;64454;51.984;9.838;2022-12-11T03:01:01;20.30;;;11.63;;
75820;SDS011;64454;51.984;9.838;2022-12-11T03:03:28;22.30;;;12.45;;
75820;SDS011;64454;51.984;9.838;2022-12-11T03:05:55;23.00;;;12.93;;
75820;SDS011;64454;51.984;9.838;2022-12-11T03:08:22;23.47;;;12.47;;
75820;SDS011;64454;51.984;9.838;2022-12-11T03:10:50;21.98;;;13.25;;
75820;SDS011;64454;51.984;9.838;2022-12-11T03:13:18;24.88;;;13.18;;
75820;SDS011;64454;51.984;9.838;2022-12-11T03:15:52;25.20;;;14.68;;
75820;SDS011;64454;51.984;9.838;2022-12-11T03:18:38;24.38;;;13.13;;
75820;SDS011;64454;51.984;9.838;2022-12-11T03:21:18;22.00;;;13.52;;
75820;SDS011;64454;51.984;9.838;2022-12-11T03:23:56;27.40;;;14.60;;
75820;SDS011;64454;51.984;9.838;2022-12-11T03:26:33;22.17;;;13.13;;
75820;SDS011;64454;51.984;9.838;2022-12-11T03:29:09;23.52;;;13.80;;
75820;SDS011;64454;51.984;9.838;2022-12-11T03:31:47;23.50;;;13.68;;
75820;SDS011;64454;51.984;9.838;2022-12-11T03:34:22;23.00;;;13.70;;
75820;SDS011;64454;51.984;9.838;2022-12-11T03:36:56;22.88;;;12.52;;
75820;SDS011;64454;51.984;9.838;2022-12-11T03:39:26;24.15;;;13.45;;
75820;SDS011;64454;51.984;9.838;2022-12-11T03:41:58;23.98;;;12.75;;
75820;SDS011;64454;51.984;9.838;2022-12-11T03:44:30;22.95;;;12.70;;
75820;SDS011;64454;51.984;9.838;2022-12-11T03:47:02;21.65;;;11.95;;
75820;SDS011;64454;51.984;9.838;2022-12-11T03:49:34;23.40;;;12.35;;
75820;SDS011;64454;51.984;9.838;2022-12-11T03:52:05;21.60;;;12.60;;
75820;SDS011;64454;51.984;9.838;2022-12-11T03:54:35;21.40;;;12.23;;
75820;SDS011;64454;51.984;9.838;2022-12-11T03:57:04;22.90;;;11.80;;
75820;SDS011;64454;51.984;9.838;2022-12-11T03:59:37;22.58;;;11.82;;
75820;SDS011;64454;51.984;9.838;2022-12-11T04:02:05;19.95;;;12.43;;
75820;SDS011;64454;51.984;9.838;2022-12-11T04:04:35;20.65;;;11.98;;
75820;SDS011;64454;51.984;9.838;2022-12-11T04:07:02;21.33;;;12.63;;
75820;SDS011;64454;51.984;9.838;2022-12-11T04:09:29;21.80;;;12.70;;
75820;SDS011;64454;51.984;9.838;2022-12-11T04:11:55;21.60;;;12.20;;
75820;SDS011;64454;51.984;9.838;2022-12-11T04:14:22;17.75;;;11.20;;
75820;SDS011;64454;51.984;9.838;2022-12-11T04:17:08;20.85;;;12.50;;
75820;SDS011;64454;51.984;9.838;2022-12-11T04:19:35;23.08;;;12.82;;
75820;SDS011;64454;51.984;9.838;2022-12-11T04:22:20;19.83;;;12.00;;
75820;SDS011;64454;51.984;9.838;2022-12-11T04:25:16;21.83;;;12.25;;
75820;SDS011;64454;51.984;9.838;2022-12-11T04:27:43;19.77;;;11.70;;
75820;SDS011;64454;51.984;9.838;2022-12-11T04:30:17;20.80;;;12.15;;
75820;SDS011;64454;51.984;9.838;2022-12-11T04:32:50;21.33;;;12.70;;
75820;SDS011;64454;51.984;9.838;2022-12-11T04:35:18;23.30;;;13.10;;
75820;SDS011;64454;51.984;9.838;2022-12-11T04:37:46;22.38;;;13.60;;
75820;SDS011;64454;51.984;9.838;2022-12-11T04:40:14;22.35;;;12.45;;
75820;SDS011;64454;51.984;9.838;2022-12-11T04:42:44;22.20;;;11.95;;
75820;SDS011;64454;51.984;9.838;2022-12-11T04:45:11;22.48;;;11.70;;
75820;SDS011;64454;51.984;9.838;2022-12-11T04:47:39;22.52;;;12.52;;
75820;SDS011;64454;51.984;9.838;2022-12-11T04:50:09;23.05;;;13.50;;
75820;SDS011;64454;51.984;9.838;2022-12-11T04:52:38;21.60;;;11.63;;
75820;SDS011;64454;51.984;9.838;2022-12-11T04:55:06;20.70;;;12.30;;
75820;SDS011;64454;51.984;9.838;2022-12-11T04:57:34;20.52;;;11.68;;
75820;SDS011;64454;51.984;9.838;2022-12-11T05:00:01;18.23;;;11.20;;
75820;SDS011;64454;51.984;9.838;2022-12-11T05:02:32;20.27;;;12.15;;
75820;SDS011;64454;51.984;9.838;2022-12-11T05:05:01;21.48;;;12.55;;
75820;SDS011;64454;51.984;9.838;2022-12-11T05:07:30;20.00;;;11.70;;
75820;SDS011;64454;51.984;9.838;2022-12-11T05:09:58;21.67;;;12.55;;
75820;SDS011;64454;51.984;9.838;2022-12-11T05:12:25;18.42;;;11.52;;
75820;SDS011;64454;51.984;9.838;2022-12-11T05:14:52;18.58;;;11.43;;
75820;SDS011;64454;51.984;9.838;2022-12-11T05:17:19;20.10;;;12.38;;
75820;SDS011;64454;51.984;9.838;2022-12-11T05:19:47;20.65;;;12.15;;
75820;SDS011;64454;51.984;9.838;2022-12-11T05:22:14;21.88;;;12.55;;
75820;SDS011;64454;51.984;9.838;2022-12-11T05:24:43;21.08;;;11.93;;
75820;SDS011;64454;51.984;9.838;2022-12-11T05:27:10;20.25;;;12.00;;
75820;SDS011;64454;51.984;9.838;2022-12-11T05:29:38;21.88;;;12.00;;
75820;SDS011;64454;51.984;9.838;2022-12-11T05:32:06;18.50;;;11.65;;
75820;SDS011;64454;51.984;9.838;2022-12-11T05:34:33;19.30;;;12.47;;
75820;SDS011;64454;51.984;9.838;2022-12-11T05:37:00;19.33;;;12.73;;
75820;SDS011;64454;51.984;9.838;2022-12-11T05:39:27;21.50;;;12.32;;
75820;SDS011;64454;51.984;9.838;2022-12-11T05:41:55;20.35;;;12.10;;
75820;SDS011;64454;51.984;9.838;2022-12-11T05:44:22;21.10;;;12.40;;
75820;SDS011;64454;51.984;9.838;2022-12-11T05:46:49;20.40;;;12.00;;
75820;SDS011;64454;51.984;9.838;2022-12-11T05:49:16;21.83;;;12.40;;
75820;SDS011;64454;51.984;9.838;2022-12-11T05:51:43;21.17;;;12.82;;
75820;SDS011;64454;51.984;9.838;2022-12-11T05:54:10;24.50;;;13.50;;
75820;SDS011;64454;51.984;9.838;2022-12-11T05:56:38;20.60;;;11.45;;
75820;SDS011;64454;51.984;9.838;2022-12-11T05:59:06;21.98;;;13.02;;
75820;SDS011;64454;51.984;9.838;2022-12-11T06:01:35;22.10;;;12.15;;
75820;SDS011;64454;51.984;9.838;2022-12-11T06:04:05;24.15;;;13.02;;
75820;SDS011;64454;51.984;9.838;2022-12-11T06:06:34;20.58;;;12.98;;
75820;SDS011;64454;51.984;9.838;2022-12-11T06:09:03;20.13;;;12.50;;
75820;SDS011;64454;51.984;9.838;2022-12-11T06:11:32;22.40;;;12.50;;
75820;SDS011;64454;51.984;9.838;2022-12-11T06:14:01;23.90;;;12.93;;
75820;SDS011;64454;51.984;9.838;2022-12-11T06:16:30;23.75;;;13.20;;
75820;SDS011;64454;51.984;9.838;2022-12-11T06:18:58;23.08;;;12.25;;
75820;SDS011;64454;51.984;9.838;2022-12-11T06:21:26;20.77;;;12.20;;
75820;SDS011;64454;51.984;9.838;2022-12-11T06:23:55;18.73;;;11.60;;
75820;SDS011;64454;51.984;9.838;2022-12-11T06:26:25;19.70;;;12.00;;
75820;SDS011;64454;51.984;9.838;2022-12-11T06:28:52;21.13;;;12.50;;
75820;SDS011;64454;51.984;9.838;2022-12-11T06:31:19;21.48;;;12.43;;
75820;SDS011;64454;51.984;9.838;2022-12-11T06:33:48;23.88;;;14.15;;
75820;SDS011;64454;51.984;9.838;2022-12-11T06:36:15;22.98;;;13.70;;
75820;SDS011;64454;51.984;9.838;2022-12-11T06:38:47;22.58;;;13.63;;
75820;SDS011;64454;51.984;9.838;2022-12-11T06:41:15;27.10;;;14.07;;
75820;SDS011;64454;51.984;9.838;2022-12-11T06:43:43;23.10;;;13.98;;
75820;SDS011;64454;51.984;9.838;2022-12-11T06:46:11;24.30;;;14.50;;
75820;SDS011;64454;51.984;9.838;2022-12-11T06:48:40;23.70;;;14.20;;
75820;SDS011;64454;51.984;9.838;2022-12-11T06:51:10;25.05;;;14.35;;
75820;SDS011;64454;51.984;9.838;2022-12-11T06:53:40;23.75;;;13.52;;
75820;SDS011;64454;51.984;9.838;2022-12-11T06:56:08;22.35;;;13.80;;
75820;SDS011;64454;51.984;9.838;2022-12-11T06:58:40;23.50;;;13.68;;
75820;SDS011;64454;51.984;9.838;2022-12-11T07:01:13;24.90;;;14.30;;
75820;SDS011;64454;51.984;9.838;2022-12-11T07:03:43;25.13;;;14.20;;
75820;SDS011;64454;51.984;9.838;2022-12-11T07:06:12;25.30;;;14.63;;
75820;SDS011;64454;51.984;9.838;2022-12-11T07:08:40;26.80;;;13.52;;
75820;SDS011;64454;51.984;9.838;2022-12-11T07:11:08;24.63;;;14.63;;
75820;SDS011;64454;51.984;9.838;2022-12-11T07:13:37;27.80;;;16.30;;
75820;SDS011;64454;51.984;9.838;2022-12-11T07:16:06;28.27;;;15.10;;
75820;SDS011;64454;51.984;9.838;2022-12-11T07:18:35;25.33;;;14.65;;
75820;SDS011;64454;51.984;9.838;2022-12-11T07:21:03;28.17;;;15.68;;
75820;SDS011;64454;51.984;9.838;2022-12-11T07:23:32;26.05;;;14.80;;
75820;SDS011;64454;51.984;9.838;2022-12-11T07:26:02;27.60;;;14.47;;
75820;SDS011;64454;51.984;9.838;2022-12-11T07:28:30;26.42;;;15.05;;
75820;SDS011;64454;51.984;9.838;2022-12-11T07:30:58;25.45;;;14.80;;
75820;SDS011;64454;51.984;9.838;2022-12-11T07:33:25;29.00;;;15.90;;
75820;SDS011;64454;51.984;9.838;2022-12-11T07:35:52;30.70;;;16.63;;
75820;SDS011;64454;51.984;9.838;2022-12-11T07:38:19;27.87;;;15.33;;
75820;SDS011;64454;51.984;9.838;2022-12-11T07:40:47;29.85;;;15.82;;
75820;SDS011;64454;51.984;9.838;2022-12-11T07:43:14;28.92;;;16.75;;
75820;SDS011;64454;51.984;9.838;2022-12-11T07:45:41;28.40;;;15.77;;
75820;SDS011;64454;51.984;9.838;2022-12-11T07:48:08;27.33;;;15.23;;
75820;SDS011;64454;51.984;9.838;2022-12-11T07:50:34;26.25;;;15.70;;
75820;SDS011;64454;51.984;9.838;2022-12-11T07:53:01;28.35;;;16.33;;
75820;SDS011;64454;51.984;9.838;2022-12-11T07:55:28;27.60;;;16.20;;
75820;SDS011;64454;51.984;9.838;2022-12-11T07:57:58;32.30;;;18.08;;
75820;SDS011;64454;51.984;9.838;2022-12-11T08:00:25;33.40;;;19.70;;
75820;SDS011;64454;51.984;9.838;2022-12-11T08:02:52;44.70;;;27.35;;
75820;SDS011;64454;51.984;9.838;2022-12-11T08:05:19;33.53;;;18.15;;
75820;SDS011;64454;51.984;9.838;2022-12-11T08:07:46;31.25;;;19.95;;
75820;SDS011;64454;51.984;9.838;2022-12-11T08:10:13;28.17;;;17.60;;
75820;SDS011;64454;51.984;9.838;2022-12-11T08:12:40;28.73;;;17.58;;
75820;SDS011;64454;51.984;9.838;2022-12-11T08:15:09;26.30;;;16.13;;
75820;SDS011;64454;51.984;9.838;2022-12-11T08:17:36;24.75;;;15.05;;
75820;SDS011;64454;51.984;9.838;2022-12-11T08:20:04;25.63;;;14.75;;
75820;SDS011;64454;51.984;9.838;2022-12-11T08:22:33;26.15;;;14.13;;
75820;SDS011;64454;51.984;9.838;2022-12-11T08:25:00;23.05;;;13.20;;
75820;SDS011;64454;51.984;9.838;2022-12-11T08:27:27;25.60;;;15.07;;
75820;SDS011;64454;51.984;9.838;2022-12-11T08:29:54;24.27;;;13.55;;
75820;SDS011;64454;51.984;9.838;2022-12-11T08:32:22;24.20;;;15.55;;
75820;SDS011;64454;51.984;9.838;2022-12-11T08:34:49;21.50;;;13.82;;
75820;SDS011;64454;51.984;9.838;2022-12-11T08:37:17;22.67;;;13.63;;
75820;SDS011;64454;51.984;9.838;2022-12-11T08:39:43;25.50;;;14.40;;
75820;SDS011;64454;51.984;9.838;2022-12-11T08:42:11;23.73;;;13.50;;
75820;SDS011;64454;51.984;9.838;2022-12-11T08:44:37;23.20;;;14.10;;
75820;SDS011;64454;51.984;9.838;2022-12-11T08:47:04;26.48;;;17.20;;
75820;SDS011;64454;51.984;9.838;2022-12-11T08:49:35;31.27;;;18.95;;
75820;SDS011;64454;51.984;9.838;2022-12-11T08:52:02;21.17;;;14.43;;
75820;SDS011;64454;51.984;9.838;2022-12-11T08:54:29;26.25;;;14.73;;
75820;SDS011;64454;51.984;9.838;2022-12-11T08:56:57;21.95;;;13.00;;
75820;SDS011;64454;51.984;9.838;2022-12-11T08:59:23;22.90;;;13.55;;
75820;SDS011;64454;51.984;9.838;2022-12-11T09:01:50;24.50;;;14.43;;
75820;SDS011;64454;51.984;9.838;2022-12-11T09:04:19;20.88;;;13.30;;
75820;SDS011;64454;51.984;9.838;2022-12-11T09:06:48;22.92;;;13.88;;
75820;SDS011;64454;51.984;9.838;2022-12-11T09:09:15;20.63;;;14.07;;
75820;SDS011;64454;51.984;9.838;2022-12-11T09:11:43;21.88;;;13.98;;
75820;SDS011;64454;51.984;9.838;2022-12-11T09:14:10;24.63;;;15.17;;
75820;SDS011;64454;51.984;9.838;2022-12-11T09:16:38;27.52;;;16.98;;
75820;SDS011;64454;51.984;9.838;2022-12-11T09:19:06;26.80;;;15.65;;
75820;SDS011;64454;51.984;9.838;2022-12-11T09:21:37;27.25;;;14.85;;
75820;SDS011;64454;51.984;9.838;2022-12-11T09:24:07;25.40;;;16.20;;
75820;SDS011;64454;51.984;9.838;2022-12-11T09:26:36;26.35;;;15.15;;
75820;SDS011;64454;51.984;9.838;2022-12-11T09:29:04;24.47;;;15.00;;
75820;SDS011;64454;51.984;9.838;2022-12-11T09:31:33;23.83;;;14.43;;
75820;SDS011;64454;51.984;9.838;2022-12-11T09:34:02;25.45;;;14.88;;
75820;SDS011;64454;51.984;9.838;2022-12-11T09:36:32;25.63;;;17.40;;
75820;SDS011;64454;51.984;9.838;2022-12-11T09:39:00;24.30;;;15.48;;
75820;SDS011;64454;51.984;9.838;2022-12-11T09:41:37;25.80;;;15.25;;
75820;SDS011;64454;51.984;9.838;2022-12-11T09:44:33;20.75;;;13.52;;
75820;SDS011;64454;51.984;9.838;2022-12-11T09:47:15;24.87;;;15.00;;
75820;SDS011;64454;51.984;9.838;2022-12-11T09:49:50;26.17;;;16.23;;
75820;SDS011;64454;51.984;9.838;2022-12-11T09:52:31;25.30;;;15.98;;
75820;SDS011;64454;51.984;9.838;2022-12-11T09:55:03;25.67;;;14.38;;
75820;SDS011;64454;51.984;9.838;2022-12-11T09:57:45;26.15;;;15.40;;
75820;SDS011;64454;51.984;9.838;2022-12-11T10:00:24;23.55;;;13.98;;
75820;SDS011;64454;51.984;9.838;2022-12-11T10:03:05;23.13;;;14.57;;
75820;SDS011;64454;51.984;9.838;2022-12-11T10:06:24;23.90;;;13.75;;
75820;SDS011;64454;51.984;9.838;2022-12-11T10:08:59;24.23;;;13.93;;
75820;SDS011;64454;51.984;9.838;2022-12-11T10:11:42;24.30;;;15.20;;
75820;SDS011;64454;51.984;9.838;2022-12-11T10:14:25;26.50;;;16.23;;
75820;SDS011;64454;51.984;9.838;2022-12-11T10:17:08;22.75;;;14.73;;
75820;SDS011;64454;51.984;9.838;2022-12-11T10:19:40;24.40;;;14.65;;
75820;SDS011;64454;51.984;9.838;2022-12-11T10:22:11;21.60;;;13.60;;
75820;SDS011;64454;51.984;9.838;2022-12-11T10:24:47;25.27;;;14.13;;
75820;SDS011;64454;51.984;9.838;2022-12-11T10:27:22;22.02;;;13.27;;
75820;SDS011;64454;51.984;9.838;2022-12-11T10:29:58;24.50;;;13.60;;
75820;SDS011;64454;51.984;9.838;2022-12-11T10:32:34;25.33;;;15.90;;
75820;SDS011;64454;51.984;9.838;2022-12-11T10:35:17;22.00;;;14.18;;
75820;SDS011;64454;51.984;9.838;2022-12-11T10:37:54;23.38;;;14.90;;
75820;SDS011;64454;51.984;9.838;2022-12-11T10:40:27;22.50;;;14.90;;
75820;SDS011;64454;51.984;9.838;2022-12-11T10:42:56;23.17;;;15.63;;
75820;SDS011;64454;51.984;9.838;2022-12-11T10:45:24;25.90;;;15.63;;
75820;SDS011;64454;51.984;9.838;2022-12-11T10:48:00;24.58;;;14.57;;
75820;SDS011;64454;51.984;9.838;2022-12-11T10:50:29;25.33;;;14.07;;
75820;SDS011;64454;51.984;9.838;2022-12-11T10:52:56;22.63;;;14.63;;
75820;SDS011;64454;51.984;9.838;2022-12-11T10:55:24;25.90;;;15.30;;
75820;SDS011;64454;51.984;9.838;2022-12-11T10:57:59;22.38;;;13.55;;
75820;SDS011;64454;51.984;9.838;2022-12-11T11:00:32;24.75;;;14.50;;
75820;SDS011;64454;51.984;9.838;2022-12-11T11:03:03;21.70;;;13.82;;
75820;SDS011;64454;51.984;9.838;2022-12-11T11:05:43;21.30;;;14.02;;
75820;SDS011;64454;51.984;9.838;2022-12-11T11:08:12;23.07;;;13.90;;
75820;SDS011;64454;51.984;9.838;2022-12-11T11:10:50;20.45;;;13.00;;
75820;SDS011;64454;51.984;9.838;2022-12-11T11:13:20;23.10;;;14.10;;
75820;SDS011;64454;51.984;9.838;2022-12-11T11:15:49;22.95;;;14.30;;
75820;SDS011;64454;51.984;9.838;2022-12-11T11:18:25;23.33;;;13.55;;
75820;SDS011;64454;51.984;9.838;2022-12-11T11:20:54;23.45;;;13.52;;
75820;SDS011;64454;51.984;9.838;2022-12-11T11:23:22;25.98;;;14.82;;
75820;SDS011;64454;51.984;9.838;2022-12-11T11:25:51;22.63;;;13.20;;
75820;SDS011;64454;51.984;9.838;2022-12-11T11:28:21;22.80;;;14.18;;
75820;SDS011;64454;51.984;9.838;2022-12-11T11:30:56;21.88;;;14.10;;
75820;SDS011;64454;51.984;9.838;2022-12-11T11:33:28;21.10;;;13.68;;
75820;SDS011;64454;51.984;9.838;2022-12-11T11:35:57;24.02;;;14.07;;
75820;SDS011;64454;51.984;9.838;2022-12-11T11:38:27;21.58;;;13.20;;
75820;SDS011;64454;51.984;9.838;2022-12-11T11:41:03;21.67;;;12.80;;
75820;SDS011;64454;51.984;9.838;2022-12-11T11:43:39;23.58;;;13.43;;
75820;SDS011;64454;51.984;9.838;2022-12-11T11:46:13;20.80;;;12.73;;
75820;SDS011;64454;51.984;9.838;2022-12-11T11:48:48;20.02;;;12.90;;
75820;SDS011;64454;51.984;9.838;2022-12-11T11:51:25;21.25;;;13.77;;
75820;SDS011;64454;51.984;9.838;2022-12-11T11:54:04;23.38;;;13.95;;
75820;SDS011;64454;51.984;9.838;2022-12-11T11:56:46;21.67;;;14.00;;
75820;SDS011;64454;51.984;9.838;2022-12-11T11:59:21;19.77;;;12.77;;
75820;SDS011;64454;51.984;9.838;2022-12-11T12:01:57;19.83;;;12.38;;
75820;SDS011;64454;51.984;9.838;2022-12-11T12:04:25;22.20;;;14.10;;
75820;SDS011;64454;51.984;9.838;2022-12-11T12:07:10;20.52;;;13.55;;
75820;SDS011;64454;51.984;9.838;2022-12-11T12:09:54;21.60;;;14.20;;
75820;SDS011;64454;51.984;9.838;2022-12-11T12:12:33;22.50;;;14.70;;
75820;SDS011;64454;51.984;9.838;2022-12-11T12:15:14;23.20;;;14.68;;
75820;SDS011;64454;51.984;9.838;2022-12-11T12:18:02;23.25;;;14.63;;
75820;SDS011;64454;51.984;9.838;2022-12-11T12:20:42;23.60;;;13.57;;
75820;SDS011;64454;51.984;9.838;2022-12-11T12:23:27;22.38;;;14.23;;
75820;SDS011;64454;51.984;9.838;2022-12-11T12:26:10;23.52;;;14.77;;
75820;SDS011;64454;51.984;9.838;2022-12-11T12:28:47;24.07;;;15.03;;
75820;SDS011;64454;51.984;9.838;2022-12-11T12:31:30;22.75;;;14.32;;
75820;SDS011;64454;51.984;9.838;2022-12-11T12:34:19;24.17;;;14.90;;
75820;SDS011;64454;51.984;9.838;2022-12-11T12:36:58;23.20;;;13.50;;
75820;SDS011;64454;51.984;9.838;2022-12-11T12:39:38;22.67;;;14.18;;
75820;SDS011;64454;51.984;9.838;2022-12-11T12:42:21;24.40;;;15.75;;
75820;SDS011;64454;51.984;9.838;2022-12-11T12:45:00;23.13;;;14.32;;
75820;SDS011;64454;51.984;9.838;2022-12-11T12:47:43;27.52;;;16.20;;
75820;SDS011;64454;51.984;9.838;2022-12-11T12:50:15;25.58;;;16.73;;
75820;SDS011;64454;51.984;9.838;2022-12-11T12:52:45;26.13;;;16.13;;
75820;SDS011;64454;51.984;9.838;2022-12-11T12:55:17;22.83;;;15.30;;
75820;SDS011;64454;51.984;9.838;2022-12-11T12:57:49;26.45;;;15.80;;
75820;SDS011;64454;51.984;9.838;2022-12-11T13:00:26;27.08;;;16.33;;
75820;SDS011;64454;51.984;9.838;2022-12-11T13:03:00;26.15;;;15.65;;
75820;SDS011;64454;51.984;9.838;2022-12-11T13:05:40;30.63;;;16.70;;
75820;SDS011;64454;51.984;9.838;2022-12-11T13:08:11;38.10;;;22.40;;
75820;SDS011;64454;51.984;9.838;2022-12-11T13:10:39;28.58;;;16.88;;
75820;SDS011;64454;51.984;9.838;2022-12-11T13:16:04;25.13;;;16.17;;
75820;SDS011;64454;51.984;9.838;2022-12-11T13:18:48;26.08;;;15.48;;
75820;SDS011;64454;51.984;9.838;2022-12-11T13:21:25;26.80;;;16.90;;
75820;SDS011;64454;51.984;9.838;2022-12-11T13:24:14;33.15;;;20.70;;
75820;SDS011;64454;51.984;9.838;2022-12-11T13:26:51;30.15;;;16.80;;
75820;SDS011;64454;51.984;9.838;2022-12-11T13:29:27;26.20;;;16.63;;
75820;SDS011;64454;51.984;9.838;2022-12-11T13:31:59;31.97;;;18.00;;
75820;SDS011;64454;51.984;9.838;2022-12-11T13:34:31;28.67;;;16.85;;
75820;SDS011;64454;51.984;9.838;2022-12-11T13:37:04;27.10;;;17.60;;
75820;SDS011;64454;51.984;9.838;2022-12-11T13:39:46;29.52;;;16.30;;
75820;SDS011;64454;51.984;9.838;2022-12-11T13:42:19;29.58;;;17.15;;
75820;SDS011;64454;51.984;9.838;2022-12-11T13:44:53;23.23;;;13.77;;
75820;SDS011;64454;51.984;9.838;2022-12-11T13:47:20;17.08;;;11.20;;
75820;SDS011;64454;51.984;9.838;2022-12-11T13:49:49;17.60;;;11.15;;
75820;SDS011;64454;51.984;9.838;2022-12-11T13:52:23;16.02;;;10.82;;
75820;SDS011;64454;51.984;9.838;2022-12-11T13:54:53;18.05;;;11.57;;
75820;SDS011;64454;51.984;9.838;2022-12-11T13:57:23;17.38;;;10.10;;
75820;SDS011;64454;51.984;9.838;2022-12-11T13:59:53;17.03;;;10.80;;
75820;SDS011;64454;51.984;9.838;2022-12-11T14:02:24;19.35;;;10.75;;
75820;SDS011;64454;51.984;9.838;2022-12-11T14:04:55;19.35;;;11.95;;
75820;SDS011;64454;51.984;9.838;2022-12-11T14:07:28;15.98;;;10.50;;
75820;SDS011;64454;51.984;9.838;2022-12-11T14:10:00;15.93;;;10.13;;
75820;SDS011;64454;51.984;9.838;2022-12-11T14:12:33;16.52;;;11.15;;
75820;SDS011;64454;51.984;9.838;2022-12-11T14:15:02;19.65;;;12.80;;
75820;SDS011;64454;51.984;9.838;2022-12-11T14:17:31;18.70;;;11.80;;
75820;SDS011;64454;51.984;9.838;2022-12-11T14:20:00;18.25;;;11.07;;
75820;SDS011;64454;51.984;9.838;2022-12-11T14:22:32;15.38;;;9.70;;
75820;SDS011;64454;51.984;9.838;2022-12-11T14:25:01;17.67;;;10.57;;
75820;SDS011;64454;51.984;9.838;2022-12-11T14:27:46;17.08;;;10.50;;
75820;SDS011;64454;51.984;9.838;2022-12-11T14:30:19;17.77;;;12.40;;
75820;SDS011;64454;51.984;9.838;2022-12-11T14:32:48;21.48;;;12.27;;
75820;SDS011;64454;51.984;9.838;2022-12-11T14:35:22;21.57;;;12.37;;
75820;SDS011;64454;51.984;9.838;2022-12-11T14:37:54;22.25;;;13.73;;
75820;SDS011;64454;51.984;9.838;2022-12-11T14:40:26;22.55;;;13.02;;
75820;SDS011;64454;51.984;9.838;2022-12-11T14:43:01;19.05;;;11.90;;
75820;SDS011;64454;51.984;9.838;2022-12-11T14:45:35;20.95;;;11.90;;
75820;SDS011;64454;51.984;9.838;2022-12-11T14:48:08;17.92;;;11.85;;
75820;SDS011;64454;51.984;9.838;2022-12-11T14:50:44;21.77;;;13.20;;